sensor_id;sensor_type;location;lat;lon;timestamp;pressure;altitude;pressure_sealevel;temperature;humidity
68988;BME280;56038;46.080;11.116;2023-03-03T00:01:19;99436.44;;;5.33;75.22
68988;BME280;56038;46.080;11.116;2023-03-03T00:06:21;99429.78;;;5.20;75.67
68988;BME280;56038;46.080;11.116;2023-03-03T00:11:23;99437.69;;;5.13;75.97
68988;BME280;56038;46.080;11.116;2023-03-03T00:16:28;99434.31;;;5.09;75.92
68988;BME280;56038;46.080;11.116;2023-03-03T00:21:34;99430.97;;;5.01;76.31
68988;BME280;56038;46.080;11.116;2023-03-03T00:26:42;99433.75;;;4.89;77.25
68988;BME280;56038;46.080;11.116;2023-03-03T00:31:46;99439.28;;;4.67;78.28
68988;BME280;56038;46.080;11.116;2023-03-03T00:36:50;99439.19;;;4.72;77.60
68988;BME280;56038;46.080;11.116;2023-03-03T00:41:54;99433.09;;;4.77;77.42
68988;BME280;56038;46.080;11.116;2023-03-03T00:47:02;99437.38;;;4.78;76.67
68988;BME280;56038;46.080;11.116;2023-03-03T00:52:17;99442.66;;;4.71;77.31
68988;BME280;56038;46.080;11.116;2023-03-03T00:57:19;99440.16;;;4.66;77.45
68988;BME280;56038;46.080;11.116;2023-03-03T01:02:22;99445.38;;;4.63;77.07
68988;BME280;56038;46.080;11.116;2023-03-03T01:07:24;99433.34;;;4.62;77.38
68988;BME280;56038;46.080;11.116;2023-03-03T01:12:26;99440.34;;;4.54;77.31
68988;BME280;56038;46.080;11.116;2023-03-03T01:17:29;99435.31;;;4.45;77.27
68988;BME280;56038;46.080;11.116;2023-03-03T01:22:31;99433.69;;;4.38;77.89
68988;BME280;56038;46.080;11.116;2023-03-03T01:27:34;99434.59;;;4.34;77.96
68988;BME280;56038;46.080;11.116;2023-03-03T01:32:37;99425.13;;;4.33;77.85
68988;BME280;56038;46.080;11.116;2023-03-03T01:37:39;99416.56;;;4.31;77.79
68988;BME280;56038;46.080;11.116;2023-03-03T01:42:41;99419.94;;;4.34;77.48
68988;BME280;56038;46.080;11.116;2023-03-03T01:47:47;99413.16;;;4.26;77.99
68988;BME280;56038;46.080;11.116;2023-03-03T01:52:51;99397.75;;;4.19;78.28
68988;BME280;56038;46.080;11.116;2023-03-03T01:57:56;99410.78;;;4.12;78.61
68988;BME280;56038;46.080;11.116;2023-03-03T02:03:01;99408.28;;;4.04;79.11
68988;BME280;56038;46.080;11.116;2023-03-03T02:08:03;99408.28;;;4.04;79.08
68988;BME280;56038;46.080;11.116;2023-03-03T02:13:05;99408.38;;;3.98;79.32
68988;BME280;56038;46.080;11.116;2023-03-03T02:18:11;99395.50;;;3.95;79.30
68988;BME280;56038;46.080;11.116;2023-03-03T02:23:19;99400.66;;;3.97;78.81
68988;BME280;56038;46.080;11.116;2023-03-03T02:28:26;99394.59;;;3.99;78.63
68988;BME280;56038;46.080;11.116;2023-03-03T02:33:29;99383.38;;;3.99;79.01
68988;BME280;56038;46.080;11.116;2023-03-03T02:38:35;99389.50;;;3.91;78.94
68988;BME280;56038;46.080;11.116;2023-03-03T02:43:43;99385.28;;;3.86;78.85
68988;BME280;56038;46.080;11.116;2023-03-03T02:48:47;99387.09;;;3.78;79.29
68988;BME280;56038;46.080;11.116;2023-03-03T02:53:49;99382.00;;;3.72;79.38
68988;BME280;56038;46.080;11.116;2023-03-03T02:58:52;99386.34;;;3.70;79.08
68988;BME280;56038;46.080;11.116;2023-03-03T03:03:54;99379.53;;;3.63;79.42
68988;BME280;56038;46.080;11.116;2023-03-03T03:08:55;99380.41;;;3.61;79.77
68988;BME280;56038;46.080;11.116;2023-03-03T03:13:59;99379.50;;;3.66;79.47
68988;BME280;56038;46.080;11.116;2023-03-03T03:19:01;99375.22;;;3.65;79.28
68988;BME280;56038;46.080;11.116;2023-03-03T03:24:04;99366.72;;;3.55;79.68
68988;BME280;56038;46.080;11.116;2023-03-03T03:29:07;99373.63;;;3.53;79.63
68988;BME280;56038;46.080;11.116;2023-03-03T03:34:10;99366.03;;;3.39;79.87
68988;BME280;56038;46.080;11.116;2023-03-03T03:39:12;99361.72;;;3.41;80.01
68988;BME280;56038;46.080;11.116;2023-03-03T03:44:15;99358.28;;;3.39;79.59
68988;BME280;56038;46.080;11.116;2023-03-03T03:49:17;99363.53;;;3.33;79.99
68988;BME280;56038;46.080;11.116;2023-03-03T03:54:18;99361.91;;;3.23;79.52
68988;BME280;56038;46.080;11.116;2023-03-03T03:59:22;99356.75;;;3.23;79.96
68988;BME280;56038;46.080;11.116;2023-03-03T04:04:23;99350.81;;;3.18;80.03
68988;BME280;56038;46.080;11.116;2023-03-03T04:09:25;99358.56;;;3.16;80.21
68988;BME280;56038;46.080;11.116;2023-03-03T04:14:29;99355.97;;;3.18;79.79
68988;BME280;56038;46.080;11.116;2023-03-03T04:19:31;99353.38;;;3.15;80.10
68988;BME280;56038;46.080;11.116;2023-03-03T04:24:32;99352.56;;;3.13;80.18
68988;BME280;56038;46.080;11.116;2023-03-03T04:29:36;99350.00;;;3.10;80.00
68988;BME280;56038;46.080;11.116;2023-03-03T04:34:38;99347.50;;;3.04;79.91
68988;BME280;56038;46.080;11.116;2023-03-03T04:39:40;99352.69;;;3.00;79.97
68988;BME280;56038;46.080;11.116;2023-03-03T04:44:43;99356.06;;;3.07;79.96
68988;BME280;56038;46.080;11.116;2023-03-03T04:49:45;99362.09;;;3.06;79.71
68988;BME280;56038;46.080;11.116;2023-03-03T04:54:46;99353.56;;;2.96;79.90
68988;BME280;56038;46.080;11.116;2023-03-03T04:59:50;99354.44;;;2.97;79.84
68988;BME280;56038;46.080;11.116;2023-03-03T05:04:51;99352.69;;;3.02;79.52
68988;BME280;56038;46.080;11.116;2023-03-03T05:09:53;99356.16;;;2.96;79.41
68988;BME280;56038;46.080;11.116;2023-03-03T05:14:56;99355.34;;;2.93;79.70
68988;BME280;56038;46.080;11.116;2023-03-03T05:19:58;99351.06;;;2.90;79.47
68988;BME280;56038;46.080;11.116;2023-03-03T05:25:00;99344.25;;;2.83;79.56
68988;BME280;56038;46.080;11.116;2023-03-03T05:30:04;99345.91;;;2.90;78.99
68988;BME280;56038;46.080;11.116;2023-03-03T05:35:06;99343.38;;;2.83;78.74
68988;BME280;56038;46.080;11.116;2023-03-03T05:40:09;99345.16;;;2.78;78.65
68988;BME280;56038;46.080;11.116;2023-03-03T05:45:13;99349.50;;;2.74;78.70
68988;BME280;56038;46.080;11.116;2023-03-03T05:50:15;99350.38;;;2.72;78.65
68988;BME280;56038;46.080;11.116;2023-03-03T05:55:17;99361.53;;;2.74;78.46
68988;BME280;56038;46.080;11.116;2023-03-03T06:00:22;99360.75;;;2.65;79.18
68988;BME280;56038;46.080;11.116;2023-03-03T06:05:27;99366.69;;;2.75;79.01
68988;BME280;56038;46.080;11.116;2023-03-03T06:10:32;99375.22;;;2.80;79.04
68988;BME280;56038;46.080;11.116;2023-03-03T06:15:35;99374.31;;;2.87;78.25
68988;BME280;56038;46.080;11.116;2023-03-03T06:20:37;99379.38;;;2.96;77.74
68988;BME280;56038;46.080;11.116;2023-03-03T06:25:39;99382.78;;;2.98;77.36
68988;BME280;56038;46.080;11.116;2023-03-03T06:30:42;99381.13;;;2.93;77.38
68988;BME280;56038;46.080;11.116;2023-03-03T06:35:43;99378.38;;;3.11;77.13
68988;BME280;56038;46.080;11.116;2023-03-03T06:40:46;99384.34;;;3.19;76.86
68988;BME280;56038;46.080;11.116;2023-03-03T06:45:49;99392.81;;;3.29;77.08
68988;BME280;56038;46.080;11.116;2023-03-03T06:50:51;99394.44;;;3.39;77.10
68988;BME280;56038;46.080;11.116;2023-03-03T06:55:53;99404.63;;;3.51;76.68
68988;BME280;56038;46.080;11.116;2023-03-03T07:00:58;99407.75;;;3.79;77.16
68988;BME280;56038;46.080;11.116;2023-03-03T07:06:01;99406.81;;;3.85;75.63
68988;BME280;56038;46.080;11.116;2023-03-03T07:11:07;99411.97;;;3.86;75.40
68988;BME280;56038;46.080;11.116;2023-03-03T07:16:12;99415.41;;;3.87;74.19
68988;BME280;56038;46.080;11.116;2023-03-03T07:21:17;99417.03;;;3.94;74.41
68988;BME280;56038;46.080;11.116;2023-03-03T07:26:20;99422.13;;;4.00;73.66
68988;BME280;56038;46.080;11.116;2023-03-03T07:31:33;99422.03;;;4.06;72.96
68988;BME280;56038;46.080;11.116;2023-03-03T07:36:36;99422.81;;;4.14;73.35
68988;BME280;56038;46.080;11.116;2023-03-03T07:41:38;99410.44;;;4.36;72.81
68988;BME280;56038;46.080;11.116;2023-03-03T07:46:43;99416.00;;;4.67;72.30
68988;BME280;56038;46.080;11.116;2023-03-03T07:51:45;99413.16;;;4.82;71.25
68988;BME280;56038;46.080;11.116;2023-03-03T07:56:46;99422.31;;;5.02;71.17
68988;BME280;56038;46.080;11.116;2023-03-03T08:01:52;99416.78;;;5.23;70.26
68988;BME280;56038;46.080;11.116;2023-03-03T08:06:56;99418.94;;;5.46;69.26
68988;BME280;56038;46.080;11.116;2023-03-03T08:12:05;99417.00;;;5.59;68.28
68988;BME280;56038;46.080;11.116;2023-03-03T08:17:19;99424.34;;;5.80;68.08
68988;BME280;56038;46.080;11.116;2023-03-03T08:22:28;99425.44;;;6.12;66.95
68988;BME280;56038;46.080;11.116;2023-03-03T08:27:31;99418.88;;;6.36;66.70
68988;BME280;56038;46.080;11.116;2023-03-03T08:32:34;99414.97;;;6.55;66.90
68988;BME280;56038;46.080;11.116;2023-03-03T08:37:36;99398.00;;;6.79;66.28
68988;BME280;56038;46.080;11.116;2023-03-03T08:42:38;99415.16;;;7.18;65.43
68988;BME280;56038;46.080;11.116;2023-03-03T08:47:41;99407.22;;;8.16;68.55
68988;BME280;56038;46.080;11.116;2023-03-03T08:52:44;99405.28;;;7.95;64.81
68988;BME280;56038;46.080;11.116;2023-03-03T08:57:46;99411.09;;;7.72;64.69
68988;BME280;56038;46.080;11.116;2023-03-03T09:02:50;99415.16;;;7.51;64.59
68988;BME280;56038;46.080;11.116;2023-03-03T09:07:53;99420.72;;;7.37;64.47
68988;BME280;56038;46.080;11.116;2023-03-03T09:12:55;99419.75;;;8.03;69.47
68988;BME280;56038;46.080;11.116;2023-03-03T09:18:12;99423.00;;;7.80;63.79
68988;BME280;56038;46.080;11.116;2023-03-03T09:23:30;99412.50;;;7.53;62.13
68988;BME280;56038;46.080;11.116;2023-03-03T09:28:33;99409.59;;;7.32;63.82
68988;BME280;56038;46.080;11.116;2023-03-03T09:33:42;99408.03;;;7.25;63.13
68988;BME280;56038;46.080;11.116;2023-03-03T09:38:45;99410.53;;;7.30;63.63
68988;BME280;56038;46.080;11.116;2023-03-03T09:44:00;99398.19;;;7.38;63.25
68988;BME280;56038;46.080;11.116;2023-03-03T09:49:13;99399.81;;;7.42;62.69
68988;BME280;56038;46.080;11.116;2023-03-03T09:54:26;99394.03;;;7.63;62.20
68988;BME280;56038;46.080;11.116;2023-03-03T09:59:39;99390.00;;;7.82;61.45
68988;BME280;56038;46.080;11.116;2023-03-03T10:10:16;99381.31;;;8.43;59.65
68988;BME280;56038;46.080;11.116;2023-03-03T10:15:29;99368.00;;;8.78;59.09
68988;BME280;56038;46.080;11.116;2023-03-03T10:20:44;99364.94;;;9.67;56.75
68988;BME280;56038;46.080;11.116;2023-03-03T10:25:55;99356.94;;;10.40;54.33
68988;BME280;56038;46.080;11.116;2023-03-03T10:31:08;99354.09;;;10.46;53.52
68988;BME280;56038;46.080;11.116;2023-03-03T10:36:29;99345.16;;;10.73;53.24
68988;BME280;56038;46.080;11.116;2023-03-03T10:41:47;99343.84;;;11.45;51.75
68988;BME280;56038;46.080;11.116;2023-03-03T10:47:00;99347.38;;;11.83;52.15
68988;BME280;56038;46.080;11.116;2023-03-03T10:52:21;99337.00;;;12.00;49.72
68988;BME280;56038;46.080;11.116;2023-03-03T10:57:34;99319.75;;;12.32;50.33
68988;BME280;56038;46.080;11.116;2023-03-03T11:02:47;99317.72;;;13.42;48.24
68988;BME280;56038;46.080;11.116;2023-03-03T11:07:56;99319.06;;;14.14;46.55
68988;BME280;56038;46.080;11.116;2023-03-03T11:13:08;99304.72;;;13.88;46.08
68988;BME280;56038;46.080;11.116;2023-03-03T11:18:24;99296.69;;;14.23;45.52
68988;BME280;56038;46.080;11.116;2023-03-03T11:23:41;99289.56;;;14.86;42.21
68988;BME280;56038;46.080;11.116;2023-03-03T11:29:01;99272.09;;;15.99;40.22
68988;BME280;56038;46.080;11.116;2023-03-03T11:34:17;99266.81;;;17.18;38.87
68988;BME280;56038;46.080;11.116;2023-03-03T11:39:24;99256.78;;;17.36;39.68
68988;BME280;56038;46.080;11.116;2023-03-03T11:44:29;99248.84;;;17.49;38.32
68988;BME280;56038;46.080;11.116;2023-03-03T11:49:37;99240.38;;;18.06;36.62
68988;BME280;56038;46.080;11.116;2023-03-03T11:54:46;99235.47;;;18.12;34.10
68988;BME280;56038;46.080;11.116;2023-03-03T11:59:57;99230.19;;;16.75;34.96
68988;BME280;56038;46.080;11.116;2023-03-03T12:05:05;99210.88;;;17.75;34.71
68988;BME280;56038;46.080;11.116;2023-03-03T12:10:20;99209.56;;;17.19;33.14
68988;BME280;56038;46.080;11.116;2023-03-03T12:15:32;99200.66;;;17.58;32.14
68988;BME280;56038;46.080;11.116;2023-03-03T12:20:43;99198.28;;;17.17;32.71
68988;BME280;56038;46.080;11.116;2023-03-03T12:25:56;99196.94;;;16.86;34.45
68988;BME280;56038;46.080;11.116;2023-03-03T12:31:14;99192.34;;;16.62;33.79
68988;BME280;56038;46.080;11.116;2023-03-03T12:36:28;99172.94;;;16.51;34.66
68988;BME280;56038;46.080;11.116;2023-03-03T12:41:39;99175.22;;;15.63;36.36
68988;BME280;56038;46.080;11.116;2023-03-03T12:46:45;99163.41;;;16.35;35.83
68988;BME280;56038;46.080;11.116;2023-03-03T12:52:03;99166.00;;;15.83;37.03
68988;BME280;56038;46.080;11.116;2023-03-03T12:57:18;99166.88;;;14.85;37.06
68988;BME280;56038;46.080;11.116;2023-03-03T13:02:37;99162.53;;;14.26;38.03
68988;BME280;56038;46.080;11.116;2023-03-03T13:07:44;99161.63;;;14.11;39.18
68988;BME280;56038;46.080;11.116;2023-03-03T13:12:52;99154.88;;;14.37;38.96
68988;BME280;56038;46.080;11.116;2023-03-03T13:18:03;99162.34;;;14.59;38.61
68988;BME280;56038;46.080;11.116;2023-03-03T13:23:13;99166.19;;;14.23;38.68
68988;BME280;56038;46.080;11.116;2023-03-03T13:28:27;99163.38;;;14.26;37.17
68988;BME280;56038;46.080;11.116;2023-03-03T13:33:34;99153.94;;;14.08;37.23
68988;BME280;56038;46.080;11.116;2023-03-03T13:38:39;99152.53;;;14.17;37.89
68988;BME280;56038;46.080;11.116;2023-03-03T13:43:48;99142.94;;;14.31;37.22
68988;BME280;56038;46.080;11.116;2023-03-03T13:49:06;99144.41;;;14.21;37.50
68988;BME280;56038;46.080;11.116;2023-03-03T13:54:30;99148.13;;;14.17;38.98
68988;BME280;56038;46.080;11.116;2023-03-03T13:59:43;99144.34;;;13.77;37.98
68988;BME280;56038;46.080;11.116;2023-03-03T14:04:52;99137.13;;;13.81;39.01
68988;BME280;56038;46.080;11.116;2023-03-03T14:10:01;99135.28;;;13.83;39.56
68988;BME280;56038;46.080;11.116;2023-03-03T14:15:16;99143.38;;;13.94;40.03
68988;BME280;56038;46.080;11.116;2023-03-03T14:20:23;99134.28;;;13.99;40.15
68988;BME280;56038;46.080;11.116;2023-03-03T14:25:49;99128.25;;;13.67;39.91
68988;BME280;56038;46.080;11.116;2023-03-03T14:30:54;99130.78;;;13.69;41.13
68988;BME280;56038;46.080;11.116;2023-03-03T14:36:05;99126.16;;;13.74;41.10
68988;BME280;56038;46.080;11.116;2023-03-03T14:41:19;99133.25;;;13.72;41.53
68988;BME280;56038;46.080;11.116;2023-03-03T14:46:32;99136.25;;;13.50;41.29
68988;BME280;56038;46.080;11.116;2023-03-03T14:51:43;99129.88;;;13.23;41.47
68988;BME280;56038;46.080;11.116;2023-03-03T14:57:02;99116.50;;;13.11;42.37
68988;BME280;56038;46.080;11.116;2023-03-03T15:02:27;99122.81;;;13.07;42.99
68988;BME280;56038;46.080;11.116;2023-03-03T15:07:32;99119.25;;;13.08;43.33
68988;BME280;56038;46.080;11.116;2023-03-03T15:12:36;99122.00;;;13.23;43.38
68988;BME280;56038;46.080;11.116;2023-03-03T15:17:43;99117.22;;;13.31;42.97
68988;BME280;56038;46.080;11.116;2023-03-03T15:23:02;99118.91;;;13.32;43.16
68988;BME280;56038;46.080;11.116;2023-03-03T15:28:16;99121.09;;;13.24;43.13
68988;BME280;56038;46.080;11.116;2023-03-03T15:33:28;99123.75;;;13.06;43.30
68988;BME280;56038;46.080;11.116;2023-03-03T15:38:50;99118.50;;;12.90;43.63
68988;BME280;56038;46.080;11.116;2023-03-03T15:44:03;99123.81;;;12.56;44.33
68988;BME280;56038;46.080;11.116;2023-03-03T15:49:15;99132.63;;;12.38;45.06
68988;BME280;56038;46.080;11.116;2023-03-03T15:54:29;99134.88;;;12.28;45.57
68988;BME280;56038;46.080;11.116;2023-03-03T15:59:52;99128.41;;;12.18;45.82
68988;BME280;56038;46.080;11.116;2023-03-03T16:05:02;99130.72;;;12.07;45.89
68988;BME280;56038;46.080;11.116;2023-03-03T16:10:16;99131.25;;;11.96;46.70
68988;BME280;56038;46.080;11.116;2023-03-03T16:15:34;99135.59;;;11.78;47.57
68988;BME280;56038;46.080;11.116;2023-03-03T16:20:48;99136.09;;;11.67;47.85
68988;BME280;56038;46.080;11.116;2023-03-03T16:25:59;99141.63;;;11.61;48.32
68988;BME280;56038;46.080;11.116;2023-03-03T16:31:08;99154.38;;;11.50;48.18
68988;BME280;56038;46.080;11.116;2023-03-03T16:36:24;99155.94;;;11.35;49.00
68988;BME280;56038;46.080;11.116;2023-03-03T16:41:37;99161.47;;;11.29;49.07
68988;BME280;56038;46.080;11.116;2023-03-03T16:46:44;99180.00;;;11.25;49.30
68988;BME280;56038;46.080;11.116;2023-03-03T16:51:52;99187.38;;;11.15;49.24
68988;BME280;56038;46.080;11.116;2023-03-03T16:57:07;99192.97;;;11.07;50.72
68988;BME280;56038;46.080;11.116;2023-03-03T17:02:35;99201.00;;;11.03;51.11
68988;BME280;56038;46.080;11.116;2023-03-03T17:07:49;99210.03;;;10.96;51.25
68988;BME280;56038;46.080;11.116;2023-03-03T17:13:19;99218.09;;;10.91;51.68
68988;BME280;56038;46.080;11.116;2023-03-03T17:18:36;99226.97;;;10.87;52.00
68988;BME280;56038;46.080;11.116;2023-03-03T17:23:57;99229.94;;;10.79;52.30
68988;BME280;56038;46.080;11.116;2023-03-03T17:29:15;99236.06;;;10.78;52.50
68988;BME280;56038;46.080;11.116;2023-03-03T17:34:29;99239.53;;;10.79;52.38
68988;BME280;56038;46.080;11.116;2023-03-03T17:39:48;99236.84;;;10.80;51.97
68988;BME280;56038;46.080;11.116;2023-03-03T17:45:06;99241.38;;;10.77;52.72
68988;BME280;56038;46.080;11.116;2023-03-03T17:50:17;99251.94;;;10.74;52.68
68988;BME280;56038;46.080;11.116;2023-03-03T17:55:43;99267.66;;;10.72;52.99
68988;BME280;56038;46.080;11.116;2023-03-03T18:00:58;99273.94;;;10.68;53.57
68988;BME280;56038;46.080;11.116;2023-03-03T18:06:23;99279.56;;;10.59;54.71
68988;BME280;56038;46.080;11.116;2023-03-03T18:11:44;99282.59;;;10.48;54.17
68988;BME280;56038;46.080;11.116;2023-03-03T18:17:14;99288.19;;;10.39;54.47
68988;BME280;56038;46.080;11.116;2023-03-03T18:22:23;99292.75;;;10.34;54.17
68988;BME280;56038;46.080;11.116;2023-03-03T18:27:35;99294.00;;;10.26;54.73
68988;BME280;56038;46.080;11.116;2023-03-03T18:32:40;99308.84;;;10.24;54.37
68988;BME280;56038;46.080;11.116;2023-03-03T18:37:43;99313.50;;;10.15;54.90
68988;BME280;56038;46.080;11.116;2023-03-03T18:42:46;99331.06;;;10.12;54.78
68988;BME280;56038;46.080;11.116;2023-03-03T18:48:03;99332.75;;;10.13;54.54
68988;BME280;56038;46.080;11.116;2023-03-03T18:53:26;99336.16;;;10.15;54.94
68988;BME280;56038;46.080;11.116;2023-03-03T18:58:35;99342.16;;;10.17;54.48
68988;BME280;56038;46.080;11.116;2023-03-03T19:04:08;99344.69;;;10.18;55.08
68988;BME280;56038;46.080;11.116;2023-03-03T19:09:18;99350.69;;;10.20;55.01
68988;BME280;56038;46.080;11.116;2023-03-03T19:14:31;99356.81;;;10.21;54.79
68988;BME280;56038;46.080;11.116;2023-03-03T19:19:58;99358.72;;;10.16;55.16
68988;BME280;56038;46.080;11.116;2023-03-03T19:25:25;99359.69;;;10.13;55.18
68988;BME280;56038;46.080;11.116;2023-03-03T19:30:46;99360.59;;;10.12;55.49
68988;BME280;56038;46.080;11.116;2023-03-03T19:36:05;99368.66;;;10.06;55.10
68988;BME280;56038;46.080;11.116;2023-03-03T19:41:19;99375.09;;;9.98;55.44
68988;BME280;56038;46.080;11.116;2023-03-03T19:46:34;99390.03;;;9.93;55.33
68988;BME280;56038;46.080;11.116;2023-03-03T19:51:46;99402.53;;;9.84;56.22
68988;BME280;56038;46.080;11.116;2023-03-03T19:56:53;99411.22;;;9.85;55.50
68988;BME280;56038;46.080;11.116;2023-03-03T20:07:43;99412.78;;;9.89;56.35
68988;BME280;56038;46.080;11.116;2023-03-03T20:12:57;99420.75;;;9.86;56.51
68988;BME280;56038;46.080;11.116;2023-03-03T20:18:29;99408.72;;;9.82;56.93
68988;BME280;56038;46.080;11.116;2023-03-03T20:23:46;99422.31;;;9.67;57.47
68988;BME280;56038;46.080;11.116;2023-03-03T20:29:02;99425.72;;;9.69;56.63
68988;BME280;56038;46.080;11.116;2023-03-03T20:34:12;99432.84;;;9.64;56.65
68988;BME280;56038;46.080;11.116;2023-03-03T20:39:26;99440.63;;;9.65;57.03
68988;BME280;56038;46.080;11.116;2023-03-03T20:44:42;99442.47;;;9.61;56.58
68988;BME280;56038;46.080;11.116;2023-03-03T20:49:58;99448.13;;;9.49;57.73
68988;BME280;56038;46.080;11.116;2023-03-03T20:55:12;99456.09;;;9.45;57.85
68988;BME280;56038;46.080;11.116;2023-03-03T21:00:22;99456.91;;;9.47;57.75
68988;BME280;56038;46.080;11.116;2023-03-03T21:05:25;99455.25;;;9.44;58.08
68988;BME280;56038;46.080;11.116;2023-03-03T21:10:31;99459.78;;;9.39;58.19
68988;BME280;56038;46.080;11.116;2023-03-03T21:15:35;99465.72;;;9.43;58.53
68988;BME280;56038;46.080;11.116;2023-03-03T21:20:39;99465.19;;;9.33;57.99
68988;BME280;56038;46.080;11.116;2023-03-03T21:25:47;99460.56;;;9.16;60.25
68988;BME280;56038;46.080;11.116;2023-03-03T21:31:11;99464.91;;;9.16;60.33
68988;BME280;56038;46.080;11.116;2023-03-03T21:36:15;99470.16;;;9.14;59.57
68988;BME280;56038;46.080;11.116;2023-03-03T21:41:19;99468.31;;;9.18;59.49
68988;BME280;56038;46.080;11.116;2023-03-03T21:46:22;99467.53;;;9.16;59.41
68988;BME280;56038;46.080;11.116;2023-03-03T21:51:24;99473.66;;;9.13;59.43
68988;BME280;56038;46.080;11.116;2023-03-03T21:56:29;99479.72;;;9.14;59.66
68988;BME280;56038;46.080;11.116;2023-03-03T22:01:31;99475.34;;;9.14;59.76
68988;BME280;56038;46.080;11.116;2023-03-03T22:06:33;99476.31;;;9.12;59.69
68988;BME280;56038;46.080;11.116;2023-03-03T22:11:36;99479.97;;;9.06;59.54
68988;BME280;56038;46.080;11.116;2023-03-03T22:16:38;99482.44;;;9.11;59.68
68988;BME280;56038;46.080;11.116;2023-03-03T22:21:40;99477.44;;;9.05;59.79
68988;BME280;56038;46.080;11.116;2023-03-03T22:26:43;99497.41;;;9.04;59.90
68988;BME280;56038;46.080;11.116;2023-03-03T22:31:45;99493.06;;;9.05;59.83
68988;BME280;56038;46.080;11.116;2023-03-03T22:36:47;99490.50;;;9.03;59.66
68988;BME280;56038;46.080;11.116;2023-03-03T22:41:50;99489.72;;;9.01;60.05
68988;BME280;56038;46.080;11.116;2023-03-03T22:46:52;99490.69;;;8.97;59.73
68988;BME280;56038;46.080;11.116;2023-03-03T22:51:54;99503.72;;;8.97;59.82
68988;BME280;56038;46.080;11.116;2023-03-03T22:56:59;99496.00;;;8.94;60.21
68988;BME280;56038;46.080;11.116;2023-03-03T23:02:01;99493.59;;;8.88;59.87
68988;BME280;56038;46.080;11.116;2023-03-03T23:07:03;99500.59;;;8.86;59.88
68988;BME280;56038;46.080;11.116;2023-03-03T23:12:06;99498.97;;;8.82;60.25
68988;BME280;56038;46.080;11.116;2023-03-03T23:17:08;99501.72;;;8.77;60.39
68988;BME280;56038;46.080;11.116;2023-03-03T23:22:10;99505.34;;;8.73;60.40
68988;BME280;56038;46.080;11.116;2023-03-03T23:27:13;99496.81;;;8.68;60.48
68988;BME280;56038;46.080;11.116;2023-03-03T23:32:14;99503.91;;;8.63;60.54
68988;BME280;56038;46.080;11.116;2023-03-03T23:37:16;99503.34;;;8.53;60.73
68988;BME280;56038;46.080;11.116;2023-03-03T23:42:19;99512.25;;;8.45;60.95
68988;BME280;56038;46.080;11.116;2023-03-03T23:47:21;99503.84;;;8.35;61.51
68988;BME280;56038;46.080;11.116;2023-03-03T23:52:23;99513.53;;;8.30;61.58
68988;BME280;56038;46.080;11.116;2023-03-03T23:57:27;99521.41;;;8.27;61.79
